Time;durP1;ratioP1;P1;durP2;ratioP2;P2;SDS_P1;SDS_P2;PMS_P1;PMS_P2;Temp;Humidity;BMP_temperature;BMP_pressure;BME280_temperature;BME280_humidity;BME280_pressure;Samples;Min_cycle;Max_cycle;Signal;HPM_P1;HPM_P2
2022/11/06 00:00:14;;;;;;;;;11.00;9.33;;;;;11.53;100.00;100896.19;6258362;22;45540;-82
2022/11/06 00:02:39;;;;;;;;;6.00;5.33;;;;;11.51;100.00;100892.63;6229584;22;45835;-82
2022/11/06 00:07:52;;;;;;;;;9.67;8.00;;;;;11.42;100.00;100896.06;6255778;22;45447;-82
2022/11/06 00:10:18;;;;;;;;;7.67;7.00;;;;;11.41;100.00;100892.53;6254443;22;45679;-82
2022/11/06 00:12:47;;;;;;;;;6.00;6.00;;;;;11.38;100.00;100903.13;6256308;22;45345;-83
2022/11/06 00:15:12;;;;;;;;;8.00;7.33;;;;;11.34;100.00;100905.72;6231180;22;45453;-82
2022/11/06 00:17:38;;;;;;;;;6.00;6.00;;;;;11.30;100.00;100910.13;6229417;22;46815;-82
2022/11/06 00:20:06;;;;;;;;;6.33;6.33;;;;;11.32;100.00;100919.00;6229769;22;45514;-82
2022/11/06 00:22:33;;;;;;;;;5.33;4.00;;;;;11.30;100.00;100918.09;6230717;22;45441;-82
2022/11/06 00:24:58;;;;;;;;;8.00;8.00;;;;;11.28;100.00;100908.31;6257769;22;44753;-82
2022/11/06 00:27:24;;;;;;;;;8.67;7.33;;;;;11.22;100.00;100906.44;6257783;22;45796;-82
2022/11/06 00:29:52;;;;;;;;;8.33;6.67;;;;;11.26;100.00;100926.03;6259237;22;45350;-82
2022/11/06 00:32:20;;;;;;;;;7.00;7.00;;;;;11.32;100.00;100931.44;6229012;22;45234;-82
2022/11/06 00:34:46;;;;;;;;;9.00;8.00;;;;;11.31;100.00;100924.31;6229455;22;44887;-82
2022/11/06 00:37:12;;;;;;;;;5.00;5.00;;;;;11.27;100.00;100907.44;6255351;22;45405;-82
2022/11/06 00:39:37;;;;;;;;;12.00;8.00;;;;;11.32;100.00;100913.69;6256706;22;45084;-82
2022/11/06 00:42:03;;;;;;;;;5.00;5.00;;;;;11.26;100.00;100908.28;6229592;22;45347;-82
2022/11/06 00:44:28;;;;;;;;;9.67;6.00;;;;;11.31;100.00;100914.59;6254755;22;45319;-82
2022/11/06 00:46:54;;;;;;;;;6.00;5.00;;;;;11.32;100.00;100912.81;6256261;22;45344;-82
2022/11/06 00:49:19;;;;;;;;;9.00;8.33;;;;;11.29;100.00;100897.69;6231246;22;45168;-82
2022/11/06 00:51:45;;;;;;;;;9.00;9.00;;;;;11.35;100.00;100908.41;6259347;22;45366;-82
2022/11/06 00:54:11;;;;;;;;;5.00;4.00;;;;;11.35;100.00;100913.75;6230178;22;44828;-81
2022/11/06 00:56:38;;;;;;;;;9.33;7.33;;;;;11.35;100.00;100902.19;6229750;22;46148;-82
2022/11/06 00:59:06;;;;;;;;;7.33;5.00;;;;;11.31;100.00;100887.94;6229481;22;45444;-82
2022/11/06 01:01:35;;;;;;;;;7.00;7.00;;;;;11.34;100.00;100885.31;6255271;22;45335;-81
2022/11/06 01:04:09;;;;;;;;;5.67;5.00;;;;;11.35;100.00;100903.09;6257395;22;45372;-82
2022/11/06 01:06:39;;;;;;;;;5.00;5.00;;;;;11.40;100.00;100890.72;6256890;22;47029;-82
2022/11/06 01:09:06;;;;;;;;;8.33;8.00;;;;;11.46;100.00;100879.25;6229327;22;45421;-81
2022/11/06 01:11:43;;;;;;;;;4.00;4.00;;;;;11.48;100.00;100876.63;6257270;22;45432;-81
2022/11/06 01:14:11;;;;;;;;;5.00;5.00;;;;;11.53;100.00;100853.59;6255798;22;45606;-81
2022/11/06 01:16:38;;;;;;;;;6.67;5.00;;;;;11.56;100.00;100840.31;6255638;22;46718;-82
2022/11/06 01:19:05;;;;;;;;;3.33;3.00;;;;;11.59;100.00;100849.25;6228547;22;45559;-82
2022/11/06 01:21:36;;;;;;;;;5.33;5.00;;;;;11.62;100.00;100853.72;6257152;22;45421;-82
2022/11/06 01:24:05;;;;;;;;;6.33;6.33;;;;;11.62;100.00;100853.72;6256728;22;45390;-82
2022/11/06 01:26:31;;;;;;;;;5.33;5.33;;;;;11.60;100.00;100845.69;6256766;22;45451;-83
2022/11/06 01:32:25;;;;;;;;;5.33;5.33;;;;;11.71;100.00;100863.56;6254006;22;45321;-83
2022/11/06 01:34:51;;;;;;;;;5.33;5.00;;;;;11.67;100.00;100857.31;6229403;22;45320;-83
2022/11/06 01:37:16;;;;;;;;;9.00;6.67;;;;;11.65;100.00;100866.16;6228630;22;45636;-81
2022/11/06 01:39:42;;;;;;;;;6.00;5.67;;;;;11.70;100.00;100872.44;6230276;22;45342;-81
2022/11/06 01:42:11;;;;;;;;;8.00;5.00;;;;;11.66;100.00;100873.28;6229954;22;45668;-83
2022/11/06 01:44:39;;;;;;;;;4.67;3.67;;;;;11.65;100.00;100867.03;6230227;22;45299;-83
2022/11/06 01:47:19;;;;;;;;;4.67;4.67;;;;;11.63;100.00;100857.25;6256405;22;46283;-82
2022/11/06 01:49:44;;;;;;;;;4.00;4.00;;;;;11.60;100.00;100855.47;6229659;22;45402;-81
2022/11/06 01:52:12;;;;;;;;;5.33;5.33;;;;;11.65;100.00;100861.72;6255131;22;45382;-82
2022/11/06 01:54:39;;;;;;;;;4.67;4.67;;;;;11.67;100.00;100854.63;6256992;22;45388;-82
2022/11/06 01:57:06;;;;;;;;;8.00;6.00;;;;;11.73;100.00;100846.72;6257505;22;45279;-82
2022/11/06 01:59:37;;;;;;;;;7.33;5.00;;;;;11.78;100.00;100839.69;6229088;22;45174;-82
2022/11/06 02:02:03;;;;;;;;;5.67;5.67;;;;;11.76;100.00;100816.56;6255481;22;45262;-82
2022/11/06 02:04:32;;;;;;;;;5.67;4.67;;;;;11.75;100.00;100826.31;6256846;22;45757;-82
2022/11/06 02:06:59;;;;;;;;;5.67;4.33;;;;;11.71;100.00;100808.50;6255931;22;45028;-81
2022/11/06 02:09:28;;;;;;;;;3.33;2.67;;;;;11.73;100.00;100814.75;6254512;22;45455;-81
2022/11/06 02:15:34;;;;;;;;;4.33;4.00;;;;;11.72;100.00;100796.97;6258910;22;45405;-82
2022/11/06 02:18:24;;;;;;;;;4.00;4.00;;;;;11.69;100.00;100791.59;6229439;22;46738;-82
2022/11/06 02:21:23;;;;;;;;;4.67;4.67;;;;;11.67;100.00;100781.81;6256466;22;45342;-82
2022/11/06 02:24:10;;;;;;;;;4.67;4.67;;;;;11.64;100.00;100755.16;6257279;22;45884;-80
2022/11/06 02:27:01;;;;;;;;;7.00;5.67;;;;;11.56;100.00;100753.31;6258111;22;45332;-82
2022/11/06 02:29:46;;;;;;;;;5.00;5.00;;;;;11.57;100.00;100787.06;6229857;22;46906;-81
2022/11/06 02:32:26;;;;;;;;;5.00;5.00;;;;;11.56;100.00;100779.06;6256214;22;45403;-81
2022/11/06 02:34:55;;;;;;;;;7.00;7.00;;;;;11.55;100.00;100771.94;6256801;22;45415;-81
2022/11/06 02:37:28;;;;;;;;;5.33;5.33;;;;;11.55;100.00;100783.50;6256609;22;45441;-81
2022/11/06 02:39:59;;;;;;;;;5.00;5.00;;;;;11.56;100.00;100776.41;6258219;22;45221;-83
2022/11/06 02:42:27;;;;;;;;;8.67;8.67;;;;;11.56;100.00;100779.94;6254094;22;45356;-82
2022/11/06 02:44:56;;;;;;;;;4.67;4.67;;;;;11.56;100.00;100785.28;6258423;22;45437;-82
2022/11/06 02:47:23;;;;;;;;;3.67;3.67;;;;;11.58;100.00;100779.97;6257617;22;45276;-82
2022/11/06 02:50:05;;;;;;;;;7.33;5.67;;;;;11.63;100.00;100775.56;6256233;22;45996;-83
2022/11/06 02:52:41;;;;;;;;;5.33;5.33;;;;;11.62;100.00;100779.13;6255212;22;45351;-81
2022/11/06 02:55:22;;;;;;;;;5.00;5.00;;;;;11.66;100.00;100775.59;6254541;22;45395;-81
2022/11/06 02:57:53;;;;;;;;;4.67;4.67;;;;;11.69;100.00;100775.63;6254186;22;45443;-82
2022/11/06 03:00:21;;;;;;;;;3.67;3.67;;;;;11.71;100.00;100783.63;6253836;22;46986;-82
2022/11/06 03:02:59;;;;;;;;;4.00;4.00;;;;;11.70;100.00;100768.53;6254283;22;45314;-81
2022/11/06 03:05:28;;;;;;;;;5.67;5.67;;;;;11.75;100.00;100758.81;6255246;22;45395;-81
2022/11/06 03:08:05;;;;;;;;;4.33;4.00;;;;;11.76;100.00;100755.28;6258872;22;44744;-83
2022/11/06 03:10:54;;;;;;;;;9.00;7.33;;;;;11.76;100.00;100758.84;6229916;22;46784;-82
2022/11/06 03:13:34;;;;;;;;;3.00;3.00;;;;;11.71;100.00;100723.25;6255193;22;45469;-82
2022/11/06 03:16:14;;;;;;;;;5.00;5.00;;;;;11.72;100.00;100722.38;6229456;22;45384;-83
2022/11/06 03:18:55;;;;;;;;;5.67;4.67;;;;;11.67;100.00;100710.78;6258043;22;45346;-81
2022/11/06 03:21:29;;;;;;;;;6.67;6.67;;;;;11.66;100.00;100719.66;6228102;22;46925;-81
2022/11/06 03:24:00;;;;;;;;;7.67;6.33;;;;;11.63;100.00;100716.06;6256255;22;45671;-81
2022/11/06 03:26:34;;;;;;;;;5.33;5.33;;;;;11.61;100.00;100716.97;6257221;22;45286;-81
2022/11/06 03:29:11;;;;;;;;;4.67;4.67;;;;;11.47;100.00;100693.72;6205068;22;45469;-82
2022/11/06 03:31:48;;;;;;;;;5.67;4.67;;;;;11.60;100.00;100717.84;6256912;22;45298;-82
2022/11/06 03:34:23;;;;;;;;;4.67;4.67;;;;;11.57;100.00;100715.16;6229530;22;45433;-81
2022/11/06 03:36:56;;;;;;;;;6.67;5.67;;;;;11.52;100.00;100713.31;6257897;22;45409;-81
2022/11/06 03:39:31;;;;;;;;;3.67;3.67;;;;;11.57;100.00;100711.56;6259289;22;45335;-82
2022/11/06 03:42:09;;;;;;;;;6.67;6.00;;;;;11.55;100.00;100708.00;6232148;22;47139;-82
2022/11/06 03:44:40;;;;;;;;;4.33;4.33;;;;;11.50;100.00;100702.63;6257399;22;45279;-82
2022/11/06 03:47:10;;;;;;;;;5.00;5.00;;;;;11.53;100.00;100715.09;6232600;22;45377;-83
2022/11/06 03:49:44;;;;;;;;;6.00;6.00;;;;;11.45;100.00;100711.47;6259341;22;44726;-81
2022/11/06 03:52:18;;;;;;;;;5.00;5.00;;;;;11.49;100.00;100714.19;6230248;22;45674;-83
2022/11/06 03:55:08;;;;;;;;;5.33;5.33;;;;;11.40;100.00;100679.47;6231804;22;45698;-82
2022/11/06 03:57:51;;;;;;;;;6.00;6.00;;;;;11.45;100.00;100695.47;6229869;22;45694;-82
2022/11/06 04:00:19;;;;;;;;;4.33;4.33;;;;;11.33;100.00;100681.19;6227733;22;45366;-82
2022/11/06 04:02:51;;;;;;;;;5.67;5.67;;;;;11.38;100.00;100687.44;6255164;22;45377;-82
2022/11/06 04:05:22;;;;;;;;;5.00;5.00;;;;;11.34;100.00;100682.94;6226577;22;45597;-82
2022/11/06 04:16:15;;;;;;;;;4.67;4.67;;;;;11.24;100.00;100675.75;6255712;22;45428;-83
2022/11/06 04:18:41;;;;;;;;;8.33;5.00;;;;;11.20;100.00;100673.94;6230360;22;44703;-83
2022/11/06 04:21:24;;;;;;;;;5.00;5.00;;;;;11.16;100.00;100678.34;6257713;22;45685;-83
2022/11/06 04:27:22;;;;;;;;;5.00;3.33;;;;;11.15;100.00;100678.31;6253823;22;45373;-82
2022/11/06 04:30:10;;;;;;;;;9.00;8.33;;;;;11.13;100.00;100680.06;6255246;22;45352;-82
2022/11/06 04:32:59;;;;;;;;;4.33;4.00;;;;;11.09;100.00;100671.19;6255795;22;45727;-82
2022/11/06 04:39:04;;;;;;;;;5.00;5.00;;;;;11.05;100.00;100664.03;6256953;22;44889;-82
2022/11/06 04:41:42;;;;;;;;;8.00;8.00;;;;;11.08;100.00;100669.38;6253560;22;45384;-81
2022/11/06 04:44:28;;;;;;;;;7.67;5.00;;;;;11.09;100.00;100667.59;6257687;22;45456;-81
2022/11/06 04:46:58;;;;;;;;;9.33;8.00;;;;;11.13;100.00;100666.75;6254380;22;47920;-81
2022/11/06 04:49:30;;;;;;;;;6.00;6.00;;;;;11.05;100.00;100655.13;6256717;22;45759;-82
2022/11/06 04:51:57;;;;;;;;;7.00;7.00;;;;;11.12;100.00;100654.34;6254665;22;45359;-83
2022/11/06 04:54:22;;;;;;;;;8.00;5.00;;;;;11.13;100.00;100645.47;6257886;22;45594;-81
2022/11/06 04:56:55;;;;;;;;;8.00;8.00;;;;;11.14;100.00;100645.47;6256077;22;45908;-81
2022/11/06 04:59:25;;;;;;;;;5.00;5.00;;;;;11.17;100.00;100660.63;6254644;22;45363;-81
2022/11/06 05:01:50;;;;;;;;;8.00;5.67;;;;;11.20;100.00;100652.63;6229633;22;45477;-81
2022/11/06 05:04:16;;;;;;;;;8.33;6.67;;;;;11.28;100.00;100656.28;6256945;22;45340;-82
2022/11/06 05:06:41;;;;;;;;;5.33;4.67;;;;;11.27;100.00;100646.53;6229959;22;46482;-81
2022/11/06 05:09:07;;;;;;;;;7.33;6.00;;;;;11.30;100.00;100643.88;6256297;22;45341;-82
2022/11/06 05:11:37;;;;;;;;;9.67;6.67;;;;;11.26;100.00;100635.84;6230313;22;45413;-82
2022/11/06 05:14:03;;;;;;;;;8.33;8.33;;;;;11.28;100.00;100639.41;6228843;22;45287;-82
2022/11/06 05:16:29;;;;;;;;;7.33;5.00;;;;;11.32;100.00;100642.13;6228832;22;46958;-82
2022/11/06 05:18:55;;;;;;;;;7.00;7.00;;;;;11.28;100.00;100634.97;6256267;22;45450;-82
2022/11/06 05:24:05;;;;;;;;;5.00;4.00;;;;;11.37;100.00;100631.50;6256969;22;45425;-83
2022/11/06 05:27:27;;;;;;;;;6.00;4.00;;;;;11.40;100.00;100619.09;6228586;22;46605;-83
2022/11/06 05:29:52;;;;;;;;;5.00;4.67;;;;;11.32;100.00;100610.16;6253796;22;45276;-83
2022/11/06 05:32:17;;;;;;;;;5.00;5.00;;;;;11.32;100.00;100612.81;6252832;22;45375;-83
2022/11/06 05:34:44;;;;;;;;;5.33;5.00;;;;;11.32;100.00;100612.81;6227299;22;45410;-82
2022/11/06 05:37:10;;;;;;;;;5.67;4.33;;;;;11.28;100.00;100603.03;6227033;22;47364;-82
2022/11/06 05:39:37;;;;;;;;;3.33;3.33;;;;;11.30;100.00;100590.63;6257284;22;45327;-82
2022/11/06 05:42:02;;;;;;;;;6.33;6.33;;;;;11.25;100.00;100589.72;6256269;22;45371;-82
2022/11/06 05:44:27;;;;;;;;;4.33;4.33;;;;;11.29;100.00;100595.91;6257049;22;45391;-82
2022/11/06 05:46:53;;;;;;;;;7.33;5.33;;;;;11.26;100.00;100601.25;6257302;22;45921;-82
2022/11/06 05:49:21;;;;;;;;;4.33;4.33;;;;;11.29;100.00;100611.91;6257568;22;45370;-82
2022/11/06 05:51:47;;;;;;;;;1.67;1.67;;;;;11.26;100.00;100604.78;6258495;22;45338;-83
2022/11/06 05:54:14;;;;;;;;;1.00;1.00;;;;;11.31;100.00;100613.72;6231162;22;45327;-81
2022/11/06 05:56:40;;;;;;;;;3.00;3.00;;;;;11.31;100.00;100610.13;6203688;22;46163;-81
2022/11/06 05:59:05;;;;;;;;;3.00;3.00;;;;;11.30;100.00;100613.69;6257267;22;44867;-81
2022/11/06 06:01:37;;;;;;;;;4.00;4.00;;;;;11.27;100.00;100601.25;6255080;22;45280;-81
2022/11/06 06:04:07;;;;;;;;;3.00;3.00;;;;;11.26;100.00;100591.47;6228988;22;45299;-83
2022/11/06 06:06:33;;;;;;;;;5.00;5.00;;;;;11.23;100.00;100588.81;6229115;22;45405;-82
2022/11/06 06:08:58;;;;;;;;;6.00;5.33;;;;;11.17;100.00;100578.09;6256519;22;45326;-82
2022/11/06 06:11:24;;;;;;;;;4.00;4.00;;;;;11.13;100.00;100565.59;6229309;22;45339;-81
2022/11/06 06:13:49;;;;;;;;;5.00;3.67;;;;;11.15;100.00;100575.41;6229205;22;45537;-81
2022/11/06 06:16:19;;;;;;;;;3.33;3.00;;;;;11.15;100.00;100583.41;6255579;22;45340;-82
2022/11/06 06:18:51;;;;;;;;;7.33;4.00;;;;;11.12;100.00;100577.16;6256429;22;45772;-82
2022/11/06 06:21:17;;;;;;;;;3.00;3.00;;;;;11.12;100.00;100587.78;6256189;22;45341;-82
2022/11/06 06:23:43;;;;;;;;;6.33;5.67;;;;;11.17;100.00;100573.66;6256866;22;45588;-81
2022/11/06 06:26:08;;;;;;;;;4.00;3.67;;;;;11.17;100.00;100570.13;6229871;22;47108;-81
2022/11/06 06:28:34;;;;;;;;;3.00;3.00;;;;;11.19;100.00;100557.72;6230153;22;45391;-81
2022/11/06 06:31:06;;;;;;;;;5.00;5.00;;;;;11.18;100.00;100550.59;6255499;22;45721;-82
2022/11/06 06:33:32;;;;;;;;;5.00;4.00;;;;;11.18;100.00;100537.28;6228998;22;45334;-82
2022/11/06 06:36:01;;;;;;;;;9.00;4.33;;;;;11.19;100.00;100524.00;6258301;22;45983;-81
2022/11/06 06:38:26;;;;;;;;;4.00;4.00;;;;;11.17;100.00;100532.84;6230641;22;45683;-82
2022/11/06 06:40:53;;;;;;;;;4.33;4.00;;;;;11.13;100.00;100523.94;6231758;22;45452;-82
2022/11/06 06:43:19;;;;;;;;;4.33;4.33;;;;;11.13;100.00;100517.69;6231863;22;45367;-82
2022/11/06 06:45:44;;;;;;;;;4.67;4.67;;;;;11.13;100.00;100537.25;6258607;22;45330;-82
2022/11/06 06:48:10;;;;;;;;;4.00;4.00;;;;;11.09;100.00;100531.84;6258849;22;45283;-81
2022/11/06 06:50:35;;;;;;;;;4.00;4.00;;;;;11.12;100.00;100523.91;6260021;22;45226;-82
2022/11/06 06:53:01;;;;;;;;;5.00;5.00;;;;;11.11;100.00;100520.38;6254763;22;45269;-82
2022/11/06 06:55:26;;;;;;;;;8.67;4.00;;;;;11.07;100.00;100515.91;6230556;22;47595;-82
2022/11/06 06:58:05;;;;;;;;;4.67;4.67;;;;;10.99;100.00;100496.31;6257713;22;45290;-82
2022/11/06 07:00:37;;;;;;;;;3.33;3.33;;;;;11.02;100.00;100506.97;6252444;22;45378;-82
2022/11/06 07:03:02;;;;;;;;;3.67;3.67;;;;;10.95;100.00;100502.50;6231512;22;45396;-80
2022/11/06 07:05:30;;;;;;;;;8.00;8.00;;;;;10.98;100.00;100514.03;6231899;22;47132;-81
2022/11/06 07:07:58;;;;;;;;;5.00;5.00;;;;;10.98;100.00;100511.38;6257947;22;45415;-81
2022/11/06 07:10:23;;;;;;;;;5.00;5.00;;;;;10.98;100.00;100523.78;6259364;22;45295;-82
2022/11/06 07:12:49;;;;;;;;;4.00;4.00;;;;;10.98;100.00;100516.69;6231350;22;45231;-82
2022/11/06 07:15:18;;;;;;;;;5.00;4.00;;;;;10.97;100.00;100514.06;6229171;22;46905;-81
2022/11/06 07:17:48;;;;;;;;;5.00;4.33;;;;;10.96;100.00;100514.91;6229815;22;45750;-81
2022/11/06 07:20:13;;;;;;;;;8.00;8.00;;;;;10.97;100.00;100501.63;6256743;22;45413;-83
2022/11/06 07:22:38;;;;;;;;;6.00;5.00;;;;;10.95;100.00;100498.06;6255914;22;45431;-82
2022/11/06 07:25:05;;;;;;;;;6.00;4.00;;;;;10.99;100.00;100505.19;6259239;22;46162;-82
2022/11/06 07:27:34;;;;;;;;;6.00;5.33;;;;;10.94;100.00;100487.41;6232211;22;45191;-81
2022/11/06 07:30:02;;;;;;;;;5.00;5.00;;;;;10.94;100.00;100480.28;6260078;22;45328;-82
2022/11/06 07:32:29;;;;;;;;;7.00;5.67;;;;;10.93;100.00;100488.28;6230166;22;45369;-82
2022/11/06 07:34:54;;;;;;;;;4.00;4.00;;;;;10.96;100.00;100496.28;6231008;22;46741;-82
2022/11/06 07:37:19;;;;;;;;;5.00;3.00;;;;;10.93;100.00;100486.50;6229557;22;45334;-82
2022/11/06 07:39:46;;;;;;;;;6.00;6.00;;;;;10.93;100.00;100485.63;6230986;22;44937;-82
2022/11/06 07:42:14;;;;;;;;;9.00;5.33;;;;;10.92;100.00;100491.81;6229809;22;45351;-82
2022/11/06 07:44:40;;;;;;;;;4.67;4.67;;;;;10.89;100.00;100484.72;6255888;22;45344;-82
2022/11/06 07:47:05;;;;;;;;;8.67;7.67;;;;;10.91;100.00;100496.25;6227938;22;45390;-83
2022/11/06 07:49:30;;;;;;;;;7.00;4.67;;;;;10.85;100.00;100474.91;6227956;22;45377;-83
2022/11/06 07:51:56;;;;;;;;;7.67;7.67;;;;;10.90;100.00;100494.44;6257557;22;45307;-82
2022/11/06 07:54:21;;;;;;;;;8.00;5.00;;;;;10.93;100.00;100498.94;6255425;22;45240;-82
2022/11/06 07:56:47;;;;;;;;;6.33;5.33;;;;;10.92;100.00;100487.38;6255842;22;45386;-83
2022/11/06 07:59:12;;;;;;;;;6.00;5.67;;;;;10.93;100.00;100488.28;6256565;22;44932;-82
2022/11/06 08:01:37;;;;;;;;;4.67;3.00;;;;;10.98;100.00;100491.88;6257590;22;45432;-82
2022/11/06 08:04:03;;;;;;;;;3.67;3.00;;;;;10.99;100.00;100488.34;6256600;22;46589;-82
2022/11/06 08:06:28;;;;;;;;;5.00;5.00;;;;;11.03;100.00;100495.47;6257149;22;45389;-82
2022/11/06 08:08:54;;;;;;;;;5.00;5.00;;;;;11.04;100.00;100485.72;6254683;22;45607;-82
2022/11/06 08:11:19;;;;;;;;;4.00;4.00;;;;;11.10;100.00;100491.97;6229284;22;45402;-82
2022/11/06 08:13:45;;;;;;;;;5.33;4.00;;;;;11.07;100.00;100470.66;6256530;22;45824;-83
2022/11/06 08:16:13;;;;;;;;;5.00;5.00;;;;;11.14;100.00;100471.59;6254900;22;45267;-83
2022/11/06 08:18:39;;;;;;;;;5.00;4.33;;;;;11.14;100.00;100472.47;6230214;22;44888;-82
2022/11/06 08:21:06;;;;;;;;;5.00;5.00;;;;;11.16;100.00;100469.84;6256772;22;45514;-82
2022/11/06 08:23:32;;;;;;;;;6.33;3.00;;;;;11.17;100.00;100456.53;6228020;22;46808;-83
2022/11/06 08:26:01;;;;;;;;;4.67;4.67;;;;;11.23;100.00;100471.69;6254210;22;44772;-82
2022/11/06 08:28:28;;;;;;;;;4.67;4.33;;;;;11.14;100.00;100442.31;6229010;22;45351;-82
2022/11/06 08:30:57;;;;;;;;;7.00;6.00;;;;;11.19;100.00;100452.13;6253970;22;45428;-82
2022/11/06 08:33:23;;;;;;;;;5.33;5.00;;;;;11.17;100.00;100445.00;6256369;22;45147;-82
2022/11/06 08:35:49;;;;;;;;;5.33;4.33;;;;;11.20;100.00;100471.63;6227783;22;45343;-83
2022/11/06 08:38:15;;;;;;;;;8.00;8.00;;;;;11.16;100.00;100462.72;6231411;22;45363;-82
2022/11/06 08:40:41;;;;;;;;;6.00;5.00;;;;;11.10;100.00;100459.16;6258284;22;45549;-82
2022/11/06 08:43:09;;;;;;;;;8.00;5.67;;;;;11.16;100.00;100469.84;6259288;22;45452;-84
2022/11/06 08:45:42;;;;;;;;;6.67;5.67;;;;;11.14;100.00;100456.50;6258565;22;45446;-82
2022/11/06 08:48:08;;;;;;;;;4.67;4.67;;;;;11.07;100.00;100453.78;6258857;22;45286;-85
2022/11/06 08:50:36;;;;;;;;;8.33;8.00;;;;;11.06;100.00;100470.66;6258510;22;45384;-84
2022/11/06 08:53:03;;;;;;;;;6.00;5.00;;;;;11.14;100.00;100483.13;6259756;22;45321;-85
2022/11/06 08:55:33;;;;;;;;;5.00;5.00;;;;;11.13;100.00;100472.47;6256433;22;45638;-83
2022/11/06 08:57:59;;;;;;;;;6.33;6.33;;;;;11.18;100.00;100474.28;6257387;22;45418;-84
2022/11/06 09:00:25;;;;;;;;;7.33;6.00;;;;;11.13;100.00;100462.72;6230738;22;44852;-83
2022/11/06 09:02:56;;;;;;;;;7.67;6.33;;;;;11.21;100.00;100476.09;6232637;22;47385;-84
2022/11/06 09:05:21;;;;;;;;;7.00;4.00;;;;;11.22;100.00;100469.88;6233043;22;45262;-85
2022/11/06 09:07:47;;;;;;;;;5.00;5.00;;;;;11.25;100.00;100464.59;6232918;22;45341;-85
2022/11/06 09:10:13;;;;;;;;;5.33;5.33;;;;;11.23;100.00;100460.09;6258582;22;45239;-85
2022/11/06 09:12:39;;;;;;;;;8.33;7.33;;;;;11.18;100.00;100450.31;6232221;22;47328;-85
2022/11/06 09:15:05;;;;;;;;;7.33;7.33;;;;;11.15;100.00;100454.72;6257745;22;44785;-84
2022/11/06 09:17:30;;;;;;;;;6.00;4.00;;;;;11.06;100.00;100441.38;6230239;22;45381;-85
2022/11/06 09:23:17;;;;;;;;;8.00;7.33;;;;;10.85;100.00;100427.03;6257305;22;45262;-85
2022/11/06 09:25:43;;;;;;;;;8.00;7.00;;;;;10.78;100.00;100419.88;6257618;22;45243;-85
2022/11/06 09:28:08;;;;;;;;;8.33;5.67;;;;;10.71;100.00;100402.09;6257821;22;45412;-84
2022/11/06 09:30:33;;;;;;;;;10.00;10.00;;;;;10.63;100.00;100382.53;6256973;22;45381;-84
2022/11/06 09:33:01;;;;;;;;;8.00;5.33;;;;;10.69;100.00;100395.88;6227621;22;47054;-84
2022/11/06 09:35:41;;;;;;;;;10.00;10.00;;;;;10.69;100.00;100393.22;6253365;22;45365;-84
2022/11/06 09:38:11;;;;;;;;;9.67;8.33;;;;;10.70;100.00;100390.53;6227278;22;45294;-84
2022/11/06 09:40:40;;;;;;;;;9.00;8.33;;;;;10.64;100.00;100398.47;6227134;22;45305;-84
2022/11/06 09:43:16;;;;;;;;;11.67;9.33;;;;;10.63;100.00;100383.41;6253634;22;47173;-84
2022/11/06 09:45:42;;;;;;;;;7.67;7.67;;;;;10.77;100.00;100399.47;6228837;22;45246;-84
2022/11/06 09:48:37;;;;;;;;;9.00;8.00;;;;;10.74;100.00;100389.69;6254184;22;45911;-84
2022/11/06 09:51:17;;;;;;;;;10.00;10.00;;;;;10.79;100.00;100385.31;6257399;22;45274;-85
2022/11/06 09:53:53;;;;;;;;;9.00;8.33;;;;;10.85;100.00;100384.47;6256219;22;45654;-84
2022/11/06 09:56:24;;;;;;;;;9.67;8.67;;;;;10.82;100.00;100371.13;6254386;22;45381;-84
2022/11/06 09:58:51;;;;;;;;;9.33;8.33;;;;;10.84;100.00;100371.16;6225838;22;45311;-84
2022/11/06 10:01:22;;;;;;;;;14.00;10.33;;;;;10.81;100.00;100361.38;6252098;22;45393;-83
2022/11/06 10:04:03;;;;;;;;;7.00;7.00;;;;;10.84;100.00;100372.03;6251312;22;47037;-83
2022/11/06 10:06:28;;;;;;;;;11.67;9.67;;;;;10.82;100.00;100360.50;6250620;22;45461;-83
2022/11/06 10:08:59;;;;;;;;;9.67;9.00;;;;;10.85;100.00;100363.19;6225890;22;45422;-85
2022/11/06 10:11:44;;;;;;;;;11.00;9.33;;;;;10.90;100.00;100373.84;6253683;22;45286;-84
2022/11/06 10:14:47;;;;;;;;;9.00;9.00;;;;;10.94;100.00;100375.66;6253222;22;45262;-84
2022/11/06 10:17:20;;;;;;;;;8.33;6.67;;;;;11.02;100.00;100365.94;6250590;22;45106;-84
2022/11/06 10:20:16;;;;;;;;;10.67;10.67;;;;;10.96;100.00;100345.50;6222422;22;45349;-84
2022/11/06 10:23:24;;;;;;;;;11.33;10.67;;;;;11.13;100.00;100373.97;6250685;22;44808;-85
2022/11/06 10:26:09;;;;;;;;;7.67;6.67;;;;;11.10;100.00;100376.63;6070982;23;47124;-85
2022/11/06 10:28:52;;;;;;;;;11.67;8.67;;;;;11.15;100.00;100366.91;6046896;23;45279;-84
2022/11/06 10:31:37;;;;;;;;;7.67;6.67;;;;;11.09;100.00;100358.88;6048441;23;44740;-84
2022/11/06 10:34:28;;;;;;;;;5.33;5.33;;;;;11.15;100.00;100369.56;6047567;23;45493;-84
2022/11/06 10:37:00;;;;;;;;;9.00;8.00;;;;;11.16;100.00;100368.69;6048309;23;46972;-84
2022/11/06 10:39:30;;;;;;;;;8.00;8.00;;;;;11.14;100.00;100365.13;6072005;23;45589;-85
2022/11/06 10:42:17;;;;;;;;;5.00;4.33;;;;;11.12;100.00;100366.91;6047264;23;44808;-84
2022/11/06 10:45:06;;;;;;;;;9.00;8.00;;;;;11.06;100.00;100348.22;6072107;23;45315;-85
2022/11/06 10:47:38;;;;;;;;;7.00;7.00;;;;;10.98;100.00;100335.75;6041867;23;46685;-84
2022/11/06 10:50:10;;;;;;;;;7.00;7.00;;;;;10.91;100.00;100339.28;6069203;23;45457;-84
2022/11/06 10:52:51;;;;;;;;;8.00;8.00;;;;;10.96;100.00;100349.94;6046644;23;45394;-84
2022/11/06 10:55:42;;;;;;;;;10.67;7.67;;;;;10.92;100.00;100357.00;6069786;23;45451;-84
2022/11/06 10:58:11;;;;;;;;;10.67;9.33;;;;;10.85;100.00;100347.22;6070852;23;47194;-85
2022/11/06 11:00:37;;;;;;;;;6.33;6.33;;;;;10.81;100.00;100329.47;6220106;22;45332;-84
2022/11/06 11:03:17;;;;;;;;;8.67;8.67;;;;;10.73;100.00;100320.53;6225173;22;45703;-85
2022/11/06 11:05:46;;;;;;;;;5.67;5.67;;;;;10.75;100.00;100329.44;6251274;22;45299;-83
2022/11/06 11:08:43;;;;;;;;;9.00;9.00;;;;;10.74;100.00;100322.31;6249415;22;45351;-84
2022/11/06 11:11:34;;;;;;;;;9.00;6.00;;;;;10.73;100.00;100323.19;6212659;22;45380;-84
2022/11/06 11:13:59;;;;;;;;;11.00;10.00;;;;;10.68;100.00;100323.16;6253505;22;45361;-84
2022/11/06 11:16:28;;;;;;;;;7.00;5.67;;;;;10.64;100.00;100315.16;6224440;22;45426;-84
2022/11/06 11:19:12;;;;;;;;;9.00;9.00;;;;;10.60;100.00;100291.22;6223574;22;48620;-82
2022/11/06 11:21:50;;;;;;;;;7.67;7.00;;;;;10.66;100.00;100282.34;6246923;22;45148;-84
2022/11/06 11:24:16;;;;;;;;;5.33;4.67;;;;;10.63;100.00;100277.03;6248408;22;45330;-85
2022/11/06 11:26:51;;;;;;;;;9.00;8.00;;;;;10.59;100.00;100275.25;6249167;22;45231;-84
2022/11/06 11:29:20;;;;;;;;;8.67;7.00;;;;;10.62;100.00;100285.88;6249312;22;46037;-84
2022/11/06 11:31:51;;;;;;;;;13.33;10.00;;;;;10.63;100.00;100285.03;6221647;22;45458;-85
2022/11/06 11:34:21;;;;;;;;;10.33;9.00;;;;;10.61;100.00;100274.38;6247917;22;45279;-84
2022/11/06 11:36:59;;;;;;;;;6.67;6.67;;;;;10.69;100.00;100282.41;6250702;22;45333;-84
2022/11/06 11:39:29;;;;;;;;;8.00;8.00;;;;;10.79;100.00;100273.59;6252889;22;45458;-85
2022/11/06 11:42:30;;;;;;;;;8.00;8.00;;;;;10.89;100.00;100263.88;6251915;22;45384;-85
2022/11/06 11:45:08;;;;;;;;;12.67;10.33;;;;;10.95;100.00;100265.69;6252222;22;45324;-86
2022/11/06 11:47:39;;;;;;;;;11.67;8.33;;;;;10.97;100.00;100254.16;6226473;22;45633;-84
2022/11/06 11:50:16;;;;;;;;;10.00;8.67;;;;;11.09;100.00;100239.13;6251293;22;46890;-84
2022/11/06 11:53:10;;;;;;;;;10.33;10.33;;;;;11.15;100.00;100239.16;6226390;22;44822;-85
2022/11/06 11:55:42;;;;;;;;;11.33;8.33;;;;;11.12;100.00;100239.16;6240964;22;45387;-85
2022/11/06 11:58:25;;;;;;;;;11.33;8.33;;;;;11.17;100.00;100226.75;6255175;22;45374;-85
2022/11/06 12:00:58;;;;;;;;;8.00;8.00;;;;;11.21;100.00;100228.53;6253035;22;45532;-85
2022/11/06 12:03:32;;;;;;;;;10.00;8.33;;;;;11.32;100.00;100234.78;6250596;22;45653;-85
2022/11/06 12:06:16;;;;;;;;;9.00;8.00;;;;;11.38;100.00;100232.13;6251968;22;45330;-85